Hatsu Envoy — VSQL9 — position and weather

sailwx.info

Track history (hours):
 
Tides and Currents Weather Stations Pressure Air Temp Water Temp Dewpoint Dewpoint Depression Visibility Wind Speed Wind Dir Waves Ship Positions

Hatsu Envoy

Last reported at 2015-Jan-26 09:09 UTC. Time now 2015-Jan-27 18:58 UTC.
Position N 22°09' E 114°27'.

Type: Ship (hazmat cat D). MMSI: 235414000.

Date/timePositionNaut miles runAvg speedWind from/ knotsBaromVisibWave heightAir tempDewpointWater temp
2015-Jan-26 09:09N 22°09' E 114°27'1118.9
2015-Jan-26 08:33N 22°20' E 114°28'1712.4
2015-Jan-26 07:10N 22°34' E 114°16'1 1.1
2015-Jan-26 06:31N 22°34' E 114°16'0 0.0
2015-Jan-26 02:26N 22°34' E 114°16'0 0.0
2015-Jan-26 01:31N 22°34' E 114°16'0 0.1
2015-Jan-25 23:33N 22°34' E 114°16'15 7.0
2015-Jan-25 21:22N 22°24' E 114°28'1113.3
2015-Jan-25 20:33N 22°13' E 114°28'1312.9
2015-Jan-25 19:32N 22°08' E 114°15'1211.8
2015-Jan-25 18:33N 22°16' E 114°06'1211.2
2015-Jan-25 17:29N 22°22' E 113°55'6 6.1
2015-Jan-25 16:33N 22°27' E 113°54'0 0.1
2015-Jan-25 15:30N 22°27' E 113°54'0 0.0
2015-Jan-25 14:12N 22°27' E 113°54'0 0.0
2015-Jan-25 13:30N 22°27' E 113°54'0 0.0
2015-Jan-25 12:30N 22°27' E 113°54'0 0.0
2015-Jan-25 11:30N 22°27' E 113°54'0 0.0
2015-Jan-25 10:30N 22°27' E 113°54'0 0.0
2015-Jan-25 09:30N 22°27' E 113°54'0 0.0
2015-Jan-25 08:09N 22°27' E 113°54'0 0.0
2015-Jan-25 07:23N 22°27' E 113°54'0 0.0
2015-Jan-25 06:29N 22°27' E 113°54'0 0.0
2015-Jan-25 05:28N 22°27' E 113°54'0 0.0
2015-Jan-25 04:30N 22°27' E 113°54'5 5.3
2015-Jan-25 03:32N 22°22' E 113°55'1010.0
2015-Jan-25 02:33N 22°20' E 114°05'13 9.2
2015-Jan-25 01:10N 22°10' E 114°13'711.9
2015-Jan-25 00:33N 22°09' E 114°21'13520.9
2015-Jan-24 18:05N 22°41' E 116°43'1320.6
2015-Jan-24 17:27N 22°46' E 116°56'1820.4
2015-Jan-24 16:33N 22°54' E 117°14'2020.1
2015-Jan-24 15:33N 23°07' E 117°31'2120.3
2015-Jan-24 14:33N 23°20' E 117°48'2020.1
2015-Jan-24 13:33N 23°32' E 118°05'2121.2
2015-Jan-24 12:33N 23°43' E 118°25'2121.5
2015-Jan-24 11:33N 23°57' E 118°43'2221.6
2015-Jan-24 10:33N 24°11' E 119°01'2222.0
2015-Jan-24 09:32N 24°24' E 119°21'2121.2
2015-Jan-24 08:33N 24°38' E 119°38'2121.2
2015-Jan-24 07:33N 24°54' E 119°54'30218.9
2015-Jan-23 15:32N 29°22' E 122°29'1717.1
2015-Jan-23 14:33N 29°39' E 122°26'1312.5
2015-Jan-23 13:33N 29°47' E 122°15'1111.3
2015-Jan-23 12:33N 29°55' E 122°06'3 2.9
2015-Jan-23 11:24N 29°53' E 122°02'0 0.0
2015-Jan-23 10:30N 29°53' E 122°02'0 0.0
2015-Jan-23 09:24N 29°53' E 122°02'0 0.0
2015-Jan-23 08:24N 29°53' E 122°02'0 0.1
2015-Jan-23 07:24N 29°53' E 122°03'0 0.1
2015-Jan-23 06:30N 29°53' E 122°02'0 0.0
2015-Jan-23 05:12N 29°53' E 122°02'0 0.0
2015-Jan-23 04:12N 29°53' E 122°02'0 0.1
2015-Jan-23 03:12N 29°53' E 122°03'0 0.1
2015-Jan-23 02:32N 29°53' E 122°02'0 0.0
2015-Jan-23 01:33N 29°53' E 122°02'0 0.1
2015-Jan-23 00:33N 29°54' E 122°02'6 6.0
2015-Jan-22 23:33N 29°56' E 122°09'8 8.1
2015-Jan-22 22:33N 29°49' E 122°14'8 2.5
2015-Jan-22 19:23N 29°45' E 122°22'0 0.1
2015-Jan-22 18:29N 29°45' E 122°22'0 0.1
2015-Jan-22 16:27N 29°45' E 122°22'0 0.1
2015-Jan-22 15:27N 29°45' E 122°22'0 0.1
2015-Jan-22 14:33N 29°45' E 122°22'0 0.1
2015-Jan-22 13:27N 29°45' E 122°22'0 0.1
2015-Jan-22 12:21N 29°45' E 122°22'0 0.2
2015-Jan-22 11:34N 29°45' E 122°22'0 0.1
2015-Jan-22 10:33N 29°45' E 122°22'0 0.1
2015-Jan-22 09:29N 29°45' E 122°22'0 0.1
2015-Jan-22 08:33N 29°45' E 122°22'0 0.5
2015-Jan-22 07:34N 29°45' E 122°23'8 7.7
2015-Jan-22 06:33N 29°46' E 122°31'1615.7
2015-Jan-22 05:31N 29°57' E 122°45'1616.0
2015-Jan-22 04:32N 30°12' E 122°50'2713.6
2015-Jan-22 02:33N 30°31' E 122°27'1211.6
2015-Jan-22 01:33N 30°33' E 122°14'9 8.9
2015-Jan-22 00:33N 30°37' E 122°05'0 0.0
2015-Jan-21 23:25N 30°37' E 122°05'0 0.0
2015-Jan-21 22:37N 30°37' E 122°05'0 0.1
2015-Jan-21 22:31N 30°37' E 122°05'0 0.0
2015-Jan-21 21:25N 30°37' E 122°05'0 0.0
2015-Jan-21 20:28N 30°37' E 122°05'0 0.0
2015-Jan-21 19:33N 30°37' E 122°05'0 0.0
2015-Jan-21 18:33N 30°37' E 122°05'0 0.0
2015-Jan-21 17:33N 30°37' E 122°05'0 0.0
2015-Jan-21 16:33N 30°37' E 122°05'0 0.0
2015-Jan-21 15:33N 30°37' E 122°05'0 0.0
2015-Jan-21 14:33N 30°37' E 122°05'6 6.1
2015-Jan-21 13:33N 30°34' E 122°11'8 7.8
2015-Jan-21 12:33N 30°33' E 122°20'7 6.6
2015-Jan-21 11:32N 30°33' E 122°28'1010.1
2015-Jan-21 10:31N 30°33' E 122°40'1212.2
2015-Jan-21 09:33N 30°35' E 122°53'34413.2
2015-Jan-20 07:31N 35°59' E 120°32'1314.0
2015-Jan-20 06:33N 36°02' E 120°16'3 1.0
2015-Jan-20 03:33N 36°01' E 120°13'0 0.0
2015-Jan-20 00:33N 36°01' E 120°13'0 0.0
2015-Jan-19 23:19N 36°01' E 120°13'0 0.0
2015-Jan-19 22:27N 36°01' E 120°13'0 0.0
2015-Jan-19 21:33N 36°01' E 120°13'0 0.0
2015-Jan-19 20:33N 36°01' E 120°13'0 0.0
2015-Jan-19 19:27N 36°01' E 120°13'0 0.3
2015-Jan-19 18:31N 36°01' E 120°13'1111.7
2015-Jan-19 17:33N 36°00' E 120°27'1514.6
2015-Jan-19 16:31N 35°56' E 120°45'  
2015-Jan-17 11:33N 30°37' E 122°57'1717.1
2015-Jan-17 10:33N 30°32' E 122°38'1513.9
2015-Jan-17 09:29N 30°30' E 122°21'2 1.7
2015-Jan-17 08:33N 30°29' E 122°20'0 0.1
2015-Jan-17 07:29N 30°29' E 122°20'0 0.0
2015-Jan-17 06:33N 30°29' E 122°20'0 0.1
2015-Jan-17 05:33N 30°29' E 122°20'1 1.5
2015-Jan-17 04:32N 30°29' E 122°18'1 0.5
2015-Jan-17 03:08N 30°29' E 122°18'0 0.0
2015-Jan-17 02:29N 30°29' E 122°18'0 0.0
2015-Jan-17 01:17N 30°29' E 122°18'0 0.0
2015-Jan-17 00:32N 30°29' E 122°18'0 0.0
2015-Jan-16 23:32N 30°29' E 122°18'0 0.0
2015-Jan-16 22:33N 30°29' E 122°18'0 0.0
2015-Jan-16 21:33N 30°29' E 122°18'0 0.0
2015-Jan-16 20:33N 30°29' E 122°18'0 0.0
2015-Jan-16 19:33N 30°29' E 122°18'0 0.0
2015-Jan-16 18:33N 30°29' E 122°18'0 0.0
2015-Jan-16 17:33N 30°29' E 122°18'0 0.0
2015-Jan-16 16:33N 30°29' E 122°18'0 0.0
2015-Jan-16 15:33N 30°29' E 122°18'0 0.0
2015-Jan-16 14:33N 30°29' E 122°18'0 0.0
2015-Jan-16 13:33N 30°29' E 122°18'1 0.5
2015-Jan-16 12:26N 30°29' E 122°17'  
Track history (hours):
 
Tides and Currents Weather Stations Pressure Air Temp Water Temp Dewpoint Dewpoint Depression Visibility Wind Speed Wind Dir Waves Ship Positions

Hatsu Envoy

Last reported at 2015-Jan-26 09:09 UTC. Time now 2015-Jan-27 18:58 UTC.
Position N 22°09' E 114°27'.

Type: Ship (hazmat cat D). MMSI: 235414000.

Date/timePositionNaut miles runAvg speedWind from/ knotsBaromVisibWave heightAir tempDewpointWater temp
2015-Jan-26 09:09N 22°09' E 114°27'1118.9
2015-Jan-26 08:33N 22°20' E 114°28'1712.4
2015-Jan-26 07:10N 22°34' E 114°16'1 1.1
2015-Jan-26 06:31N 22°34' E 114°16'0 0.0
2015-Jan-26 02:26N 22°34' E 114°16'0 0.0
2015-Jan-26 01:31N 22°34' E 114°16'0 0.1
2015-Jan-25 23:33N 22°34' E 114°16'15 7.0
2015-Jan-25 21:22N 22°24' E 114°28'1113.3
2015-Jan-25 20:33N 22°13' E 114°28'1312.9
2015-Jan-25 19:32N 22°08' E 114°15'1211.8
2015-Jan-25 18:33N 22°16' E 114°06'1211.2
2015-Jan-25 17:29N 22°22' E 113°55'6 6.1
2015-Jan-25 16:33N 22°27' E 113°54'0 0.1
2015-Jan-25 15:30N 22°27' E 113°54'0 0.0
2015-Jan-25 14:12N 22°27' E 113°54'0 0.0
2015-Jan-25 13:30N 22°27' E 113°54'0 0.0
2015-Jan-25 12:30N 22°27' E 113°54'0 0.0
2015-Jan-25 11:30N 22°27' E 113°54'0 0.0
2015-Jan-25 10:30N 22°27' E 113°54'0 0.0
2015-Jan-25 09:30N 22°27' E 113°54'0 0.0
2015-Jan-25 08:09N 22°27' E 113°54'0 0.0
2015-Jan-25 07:23N 22°27' E 113°54'0 0.0
2015-Jan-25 06:29N 22°27' E 113°54'0 0.0
2015-Jan-25 05:28N 22°27' E 113°54'0 0.0
2015-Jan-25 04:30N 22°27' E 113°54'5 5.3
2015-Jan-25 03:32N 22°22' E 113°55'1010.0
2015-Jan-25 02:33N 22°20' E 114°05'13 9.2
2015-Jan-25 01:10N 22°10' E 114°13'711.9
2015-Jan-25 00:33N 22°09' E 114°21'13520.9
2015-Jan-24 18:05N 22°41' E 116°43'1320.6
2015-Jan-24 17:27N 22°46' E 116°56'1820.4
2015-Jan-24 16:33N 22°54' E 117°14'2020.1
2015-Jan-24 15:33N 23°07' E 117°31'2120.3
2015-Jan-24 14:33N 23°20' E 117°48'2020.1
2015-Jan-24 13:33N 23°32' E 118°05'2121.2
2015-Jan-24 12:33N 23°43' E 118°25'2121.5
2015-Jan-24 11:33N 23°57' E 118°43'2221.6
2015-Jan-24 10:33N 24°11' E 119°01'2222.0
2015-Jan-24 09:32N 24°24' E 119°21'2121.2
2015-Jan-24 08:33N 24°38' E 119°38'2121.2
2015-Jan-24 07:33N 24°54' E 119°54'30218.9
2015-Jan-23 15:32N 29°22' E 122°29'1717.1
2015-Jan-23 14:33N 29°39' E 122°26'1312.5
2015-Jan-23 13:33N 29°47' E 122°15'1111.3
2015-Jan-23 12:33N 29°55' E 122°06'3 2.9
2015-Jan-23 11:24N 29°53' E 122°02'0 0.0
2015-Jan-23 10:30N 29°53' E 122°02'0 0.0
2015-Jan-23 09:24N 29°53' E 122°02'0 0.0
2015-Jan-23 08:24N 29°53' E 122°02'0 0.1
2015-Jan-23 07:24N 29°53' E 122°03'0 0.1
2015-Jan-23 06:30N 29°53' E 122°02'0 0.0
2015-Jan-23 05:12N 29°53' E 122°02'0 0.0
2015-Jan-23 04:12N 29°53' E 122°02'0 0.1
2015-Jan-23 03:12N 29°53' E 122°03'0 0.1
2015-Jan-23 02:32N 29°53' E 122°02'0 0.0
2015-Jan-23 01:33N 29°53' E 122°02'0 0.1
2015-Jan-23 00:33N 29°54' E 122°02'6 6.0
2015-Jan-22 23:33N 29°56' E 122°09'8 8.1
2015-Jan-22 22:33N 29°49' E 122°14'8 2.5
2015-Jan-22 19:23N 29°45' E 122°22'0 0.1
2015-Jan-22 18:29N 29°45' E 122°22'0 0.1
2015-Jan-22 16:27N 29°45' E 122°22'0 0.1
2015-Jan-22 15:27N 29°45' E 122°22'0 0.1
2015-Jan-22 14:33N 29°45' E 122°22'0 0.1
2015-Jan-22 13:27N 29°45' E 122°22'0 0.1
2015-Jan-22 12:21N 29°45' E 122°22'0 0.2
2015-Jan-22 11:34N 29°45' E 122°22'0 0.1
2015-Jan-22 10:33N 29°45' E 122°22'0 0.1
2015-Jan-22 09:29N 29°45' E 122°22'0 0.1
2015-Jan-22 08:33N 29°45' E 122°22'0 0.5
2015-Jan-22 07:34N 29°45' E 122°23'8 7.7
2015-Jan-22 06:33N 29°46' E 122°31'1615.7
2015-Jan-22 05:31N 29°57' E 122°45'1616.0
2015-Jan-22 04:32N 30°12' E 122°50'2713.6
2015-Jan-22 02:33N 30°31' E 122°27'1211.6
2015-Jan-22 01:33N 30°33' E 122°14'9 8.9
2015-Jan-22 00:33N 30°37' E 122°05'0 0.0
2015-Jan-21 23:25N 30°37' E 122°05'0 0.0
2015-Jan-21 22:37N 30°37' E 122°05'0 0.1
2015-Jan-21 22:31N 30°37' E 122°05'0 0.0
2015-Jan-21 21:25N 30°37' E 122°05'0 0.0
2015-Jan-21 20:28N 30°37' E 122°05'0 0.0
2015-Jan-21 19:33N 30°37' E 122°05'0 0.0
2015-Jan-21 18:33N 30°37' E 122°05'0 0.0
2015-Jan-21 17:33N 30°37' E 122°05'0 0.0
2015-Jan-21 16:33N 30°37' E 122°05'0 0.0
2015-Jan-21 15:33N 30°37' E 122°05'0 0.0
2015-Jan-21 14:33N 30°37' E 122°05'6 6.1
2015-Jan-21 13:33N 30°34' E 122°11'8 7.8
2015-Jan-21 12:33N 30°33' E 122°20'7 6.6
2015-Jan-21 11:32N 30°33' E 122°28'1010.1
2015-Jan-21 10:31N 30°33' E 122°40'1212.2
2015-Jan-21 09:33N 30°35' E 122°53'34413.2
2015-Jan-20 07:31N 35°59' E 120°32'1314.0
2015-Jan-20 06:33N 36°02' E 120°16'3 1.0
2015-Jan-20 03:33N 36°01' E 120°13'0 0.0
2015-Jan-20 00:33N 36°01' E 120°13'0 0.0
2015-Jan-19 23:19N 36°01' E 120°13'0 0.0
2015-Jan-19 22:27N 36°01' E 120°13'0 0.0
2015-Jan-19 21:33N 36°01' E 120°13'0 0.0
2015-Jan-19 20:33N 36°01' E 120°13'0 0.0
2015-Jan-19 19:27N 36°01' E 120°13'0 0.3
2015-Jan-19 18:31N 36°01' E 120°13'1111.7
2015-Jan-19 17:33N 36°00' E 120°27'1514.6
2015-Jan-19 16:31N 35°56' E 120°45'  
2015-Jan-17 11:33N 30°37' E 122°57'1717.1
2015-Jan-17 10:33N 30°32' E 122°38'1513.9
2015-Jan-17 09:29N 30°30' E 122°21'2 1.7
2015-Jan-17 08:33N 30°29' E 122°20'0 0.1
2015-Jan-17 07:29N 30°29' E 122°20'0 0.0
2015-Jan-17 06:33N 30°29' E 122°20'0 0.1
2015-Jan-17 05:33N 30°29' E 122°20'1 1.5
2015-Jan-17 04:32N 30°29' E 122°18'1 0.5
2015-Jan-17 03:08N 30°29' E 122°18'0 0.0
2015-Jan-17 02:29N 30°29' E 122°18'0 0.0
2015-Jan-17 01:17N 30°29' E 122°18'0 0.0
2015-Jan-17 00:32N 30°29' E 122°18'0 0.0
2015-Jan-16 23:32N 30°29' E 122°18'0 0.0
2015-Jan-16 22:33N 30°29' E 122°18'0 0.0
2015-Jan-16 21:33N 30°29' E 122°18'0 0.0
2015-Jan-16 20:33N 30°29' E 122°18'0 0.0
2015-Jan-16 19:33N 30°29' E 122°18'0 0.0
2015-Jan-16 18:33N 30°29' E 122°18'0 0.0
2015-Jan-16 17:33N 30°29' E 122°18'0 0.0
2015-Jan-16 16:33N 30°29' E 122°18'0 0.0
2015-Jan-16 15:33N 30°29' E 122°18'0 0.0
2015-Jan-16 14:33N 30°29' E 122°18'0 0.0
2015-Jan-16 13:33N 30°29' E 122°18'1 0.5
2015-Jan-16 12:26N 30°29' E 122°17'  

Dump ship's entire track history